Time;durP1;ratioP1;P1;durP2;ratioP2;P2;SDS_P1;SDS_P2;PMS_P1;PMS_P2;Temp;Humidity;BMP_temperature;BMP_pressure;BME280_temperature;BME280_humidity;BME280_pressure;Samples;Min_cycle;Max_cycle;Signal;HPM_P1;HPM_P2
2022/01/01 00:01:10;;;;;;;51.83;31.65;;;;;;;;;;5091294;28;20043;-79
2022/01/01 00:03:36;;;;;;;49.75;29.80;;;;;;;;;;5091790;27;20152;-79
2022/01/01 00:06:02;;;;;;;76.30;44.20;;;;;;;;;;5107136;28;20043;-79
2022/01/01 00:08:28;;;;;;;76.35;46.90;;;;;;;;;;5093084;28;20179;-79
2022/01/01 00:10:54;;;;;;;80.60;46.70;;;;;;;;;;5108128;27;20550;-79
2022/01/01 00:13:21;;;;;;;87.00;50.88;;;;;;;;;;5111489;27;20042;-79
2022/01/01 00:15:47;;;;;;;89.13;54.78;;;;;;;;;;5084887;27;20051;-79
2022/01/01 00:18:13;;;;;;;124.07;59.88;;;;;;;;;;5097480;27;20054;-80
2022/01/01 00:20:39;;;;;;;98.45;54.17;;;;;;;;;;5110855;27;20030;-80
2022/01/01 00:23:05;;;;;;;102.13;56.28;;;;;;;;;;5097047;27;20043;-74
2022/01/01 00:25:31;;;;;;;89.28;50.05;;;;;;;;;;5096582;27;20043;-74
2022/01/01 00:27:57;;;;;;;77.63;47.83;;;;;;;;;;5092581;27;20036;-74
2022/01/01 00:30:24;;;;;;;69.90;39.45;;;;;;;;;;5105466;27;20205;-74
2022/01/01 00:32:50;;;;;;;66.82;37.50;;;;;;;;;;5107244;27;20122;-74
2022/01/01 00:35:16;;;;;;;61.40;33.45;;;;;;;;;;5094859;27;20131;-74
2022/01/01 00:37:42;;;;;;;50.95;28.30;;;;;;;;;;5094392;27;20031;-73
2022/01/01 00:40:09;;;;;;;50.35;25.65;;;;;;;;;;5097803;27;20401;-73
2022/01/01 00:42:35;;;;;;;45.78;25.65;;;;;;;;;;5094852;27;20400;-73
2022/01/01 00:45:01;;;;;;;46.03;21.08;;;;;;;;;;5091763;27;20051;-73
2022/01/01 00:47:27;;;;;;;47.20;21.27;;;;;;;;;;5090534;28;20174;-74
2022/01/01 00:49:54;;;;;;;44.72;19.15;;;;;;;;;;5088859;27;20050;-74
2022/01/01 00:52:20;;;;;;;46.05;21.33;;;;;;;;;;5098232;27;20091;-73
2022/01/01 00:54:46;;;;;;;37.28;20.40;;;;;;;;;;5109516;27;20465;-73
2022/01/01 00:57:12;;;;;;;47.05;23.00;;;;;;;;;;5111465;27;20032;-73
2022/01/01 00:59:38;;;;;;;47.20;19.65;;;;;;;;;;5114056;27;20051;-73
2022/01/01 01:02:04;;;;;;;35.97;20.55;;;;;;;;;;5112047;27;20081;-73
2022/01/01 01:04:30;;;;;;;41.92;20.27;;;;;;;;;;5111116;27;20068;-73
2022/01/01 01:06:56;;;;;;;42.10;19.02;;;;;;;;;;5095648;27;20417;-73
2022/01/01 01:09:23;;;;;;;51.78;18.60;;;;;;;;;;5094699;27;20082;-73
2022/01/01 01:11:51;;;;;;;43.03;19.08;;;;;;;;;;5095273;27;20043;-73
2022/01/01 01:14:21;;;;;;;34.15;17.45;;;;;;;;;;5088400;28;20530;-73
2022/01/01 01:16:48;;;;;;;37.42;17.05;;;;;;;;;;5092531;27;20051;-73
2022/01/01 01:19:16;;;;;;;38.33;17.42;;;;;;;;;;5091917;27;20427;-73
2022/01/01 01:21:43;;;;;;;36.85;19.38;;;;;;;;;;5099461;27;20039;-73
2022/01/01 01:24:10;;;;;;;40.58;17.73;;;;;;;;;;5107961;27;20039;-73
2022/01/01 01:26:36;;;;;;;34.28;16.23;;;;;;;;;;5095044;27;20044;-73
2022/01/01 01:29:04;;;;;;;51.88;18.77;;;;;;;;;;5105630;27;20531;-73
2022/01/01 01:31:30;;;;;;;48.00;21.60;;;;;;;;;;5123871;27;20032;-73
2022/01/01 01:33:57;;;;;;;56.65;22.70;;;;;;;;;;5082203;27;20630;-73
2022/01/01 01:36:23;;;;;;;42.50;20.80;;;;;;;;;;5080927;27;20035;-80
2022/01/01 01:38:49;;;;;;;35.58;20.25;;;;;;;;;;5113225;27;20111;-80
2022/01/01 01:41:15;;;;;;;42.85;21.80;;;;;;;;;;5109282;27;20559;-80
2022/01/01 01:43:41;;;;;;;57.20;22.75;;;;;;;;;;5103861;27;20144;-80
2022/01/01 01:46:12;;;;;;;54.78;23.80;;;;;;;;;;5104935;27;20069;-80
2022/01/01 01:48:38;;;;;;;54.13;21.95;;;;;;;;;;5110977;27;20039;-80
2022/01/01 01:51:05;;;;;;;42.25;23.20;;;;;;;;;;5110982;27;20055;-79
2022/01/01 01:53:31;;;;;;;39.78;22.15;;;;;;;;;;5097763;27;20043;-80
2022/01/01 01:55:59;;;;;;;52.97;25.05;;;;;;;;;;5085313;28;20144;-80
2022/01/01 01:58:25;;;;;;;53.70;26.85;;;;;;;;;;5098964;27;20114;-79
2022/01/01 02:03:33;;;;;;;67.85;32.28;;;;;;;;;;5114222;27;20046;-80
2022/01/01 02:05:59;;;;;;;64.18;32.83;;;;;;;;;;5097945;27;20038;-80
2022/01/01 02:08:26;;;;;;;74.30;33.97;;;;;;;;;;5099375;27;20039;-80
2022/01/01 02:10:53;;;;;;;74.10;37.88;;;;;;;;;;5104132;27;20426;-73
2022/01/01 02:13:33;;;;;;;74.47;41.53;;;;;;;;;;5110034;27;20031;-73
2022/01/01 02:18:48;;;;;;;73.97;40.53;;;;;;;;;;5104077;27;20047;-73
2022/01/01 02:21:14;;;;;;;77.38;43.63;;;;;;;;;;5094455;27;20035;-73
2022/01/01 02:23:46;;;;;;;81.50;46.03;;;;;;;;;;5110190;27;20099;-73
2022/01/01 02:26:15;;;;;;;92.70;48.25;;;;;;;;;;5095424;27;20051;-73
2022/01/01 02:28:42;;;;;;;86.72;44.55;;;;;;;;;;5108630;27;20053;-73
2022/01/01 02:31:08;;;;;;;88.30;46.35;;;;;;;;;;5074894;27;20038;-73
2022/01/01 02:33:34;;;;;;;90.80;48.78;;;;;;;;;;5108326;27;20043;-73
2022/01/01 02:36:00;;;;;;;84.68;43.22;;;;;;;;;;5111815;27;20138;-74
2022/01/01 02:38:26;;;;;;;89.25;44.10;;;;;;;;;;5095325;28;20032;-80
2022/01/01 02:40:54;;;;;;;91.20;44.38;;;;;;;;;;5105653;27;20074;-79
2022/01/01 02:43:20;;;;;;;76.47;42.47;;;;;;;;;;5100175;27;20142;-80
2022/01/01 02:45:46;;;;;;;74.97;40.88;;;;;;;;;;5098871;27;20388;-80
2022/01/01 02:48:15;;;;;;;78.07;39.28;;;;;;;;;;5108050;27;20067;-80
2022/01/01 02:50:41;;;;;;;81.28;35.70;;;;;;;;;;5113010;27;20101;-80
2022/01/01 02:53:14;;;;;;;73.95;37.30;;;;;;;;;;5116021;27;20035;-80
2022/01/01 02:55:42;;;;;;;73.55;32.85;;;;;;;;;;5126668;27;20103;-80
2022/01/01 02:58:09;;;;;;;67.05;34.88;;;;;;;;;;5117464;27;20047;-79
2022/01/01 03:00:36;;;;;;;76.38;34.60;;;;;;;;;;5112041;27;20039;-73
2022/01/01 03:03:02;;;;;;;59.08;32.92;;;;;;;;;;5107037;27;20045;-73
2022/01/01 03:05:30;;;;;;;71.80;34.03;;;;;;;;;;5110365;27;20490;-74
2022/01/01 03:07:57;;;;;;;72.47;30.92;;;;;;;;;;5113870;27;20047;-73
2022/01/01 03:10:24;;;;;;;67.03;31.88;;;;;;;;;;5110723;27;20134;-73
2022/01/01 03:12:50;;;;;;;62.83;30.40;;;;;;;;;;5108578;27;20035;-73
2022/01/01 03:15:16;;;;;;;56.60;31.20;;;;;;;;;;5086471;27;20035;-73
2022/01/01 03:17:42;;;;;;;62.50;26.75;;;;;;;;;;5107495;27;20080;-73
2022/01/01 03:20:09;;;;;;;63.67;29.58;;;;;;;;;;5110899;27;20368;-73
2022/01/01 03:22:35;;;;;;;61.20;31.17;;;;;;;;;;5076265;27;20518;-73
2022/01/01 03:25:01;;;;;;;69.53;32.67;;;;;;;;;;5092304;27;20058;-73
2022/01/01 03:27:27;;;;;;;74.40;30.73;;;;;;;;;;5104037;27;20115;-73
2022/01/01 03:29:54;;;;;;;76.88;31.75;;;;;;;;;;5105096;28;20454;-73
2022/01/01 03:32:21;;;;;;;63.42;32.45;;;;;;;;;;5090812;27;20062;-73
2022/01/01 03:34:47;;;;;;;65.93;34.28;;;;;;;;;;5107343;27;20053;-73
2022/01/01 03:37:13;;;;;;;72.78;35.28;;;;;;;;;;5092719;27;20532;-73
2022/01/01 03:39:39;;;;;;;83.13;34.05;;;;;;;;;;5089071;27;20082;-73
2022/01/01 03:42:05;;;;;;;85.03;36.75;;;;;;;;;;5113038;27;20447;-73
2022/01/01 03:44:32;;;;;;;86.53;35.83;;;;;;;;;;5107040;27;20043;-73
2022/01/01 03:47:09;;;;;;;82.88;34.90;;;;;;;;;;5088514;28;20517;-73
2022/01/01 03:49:35;;;;;;;78.00;38.10;;;;;;;;;;5097407;27;20540;-73
2022/01/01 03:52:01;;;;;;;66.00;36.20;;;;;;;;;;5108184;27;20503;-73
2022/01/01 03:54:28;;;;;;;76.30;36.80;;;;;;;;;;5088298;28;20514;-73
2022/01/01 03:56:54;;;;;;;72.13;37.45;;;;;;;;;;5106374;27;20046;-80
2022/01/01 03:59:20;;;;;;;81.20;36.33;;;;;;;;;;5108738;27;20050;-80
2022/01/01 04:01:46;;;;;;;80.75;35.00;;;;;;;;;;5102536;27;20050;-80
2022/01/01 04:04:13;;;;;;;84.75;38.90;;;;;;;;;;5109885;28;20043;-80
2022/01/01 04:06:39;;;;;;;76.60;37.25;;;;;;;;;;5110967;27;20509;-80
2022/01/01 04:09:05;;;;;;;83.60;41.33;;;;;;;;;;5109386;28;20479;-80
2022/01/01 04:11:31;;;;;;;87.63;39.88;;;;;;;;;;5092170;28;20070;-80
2022/01/01 04:13:57;;;;;;;75.57;38.05;;;;;;;;;;5105590;28;20119;-79
2022/01/01 04:16:25;;;;;;;84.50;39.03;;;;;;;;;;5110375;27;20051;-80
2022/01/01 04:18:53;;;;;;;72.75;38.33;;;;;;;;;;5106930;28;20051;-80
2022/01/01 04:21:21;;;;;;;86.63;40.45;;;;;;;;;;5090942;28;20039;-79
2022/01/01 04:23:47;;;;;;;78.70;36.95;;;;;;;;;;5110465;28;20545;-79
2022/01/01 04:26:14;;;;;;;79.43;37.65;;;;;;;;;;5107352;28;20127;-80
2022/01/01 04:28:43;;;;;;;69.80;35.38;;;;;;;;;;5109320;28;20046;-73
2022/01/01 04:31:09;;;;;;;71.28;32.28;;;;;;;;;;5111223;27;20032;-73
2022/01/01 04:33:35;;;;;;;57.85;31.02;;;;;;;;;;5092784;28;20475;-73
2022/01/01 04:36:02;;;;;;;63.83;28.05;;;;;;;;;;5101294;28;20039;-73
2022/01/01 04:38:39;;;;;;;62.88;30.23;;;;;;;;;;5092637;27;20024;-73
2022/01/01 04:41:11;;;;;;;69.15;34.75;;;;;;;;;;5103908;28;20043;-80
2022/01/01 04:43:38;;;;;;;71.18;36.42;;;;;;;;;;5085896;28;20042;-79
2022/01/01 04:46:04;;;;;;;81.40;39.42;;;;;;;;;;5093527;28;20035;-80
2022/01/01 04:48:30;;;;;;;74.15;40.17;;;;;;;;;;5098280;28;20491;-79
2022/01/01 04:50:56;;;;;;;104.45;51.08;;;;;;;;;;5085727;28;20047;-79
2022/01/01 04:53:22;;;;;;;83.35;49.00;;;;;;;;;;5112798;27;20039;-80
2022/01/01 04:55:50;;;;;;;105.15;56.72;;;;;;;;;;5114330;27;20047;-79
2022/01/01 04:58:16;;;;;;;110.72;54.17;;;;;;;;;;5114160;27;20027;-79
2022/01/01 05:00:42;;;;;;;118.97;60.55;;;;;;;;;;5126834;27;20428;-79
2022/01/01 05:03:08;;;;;;;125.68;64.22;;;;;;;;;;5111260;27;20047;-79
2022/01/01 05:05:34;;;;;;;121.20;60.92;;;;;;;;;;5108968;27;20032;-79
2022/01/01 05:08:01;;;;;;;106.32;57.50;;;;;;;;;;5088985;27;20506;-80
2022/01/01 05:10:27;;;;;;;126.07;70.18;;;;;;;;;;5110734;27;20129;-80
2022/01/01 05:12:53;;;;;;;124.22;59.53;;;;;;;;;;5112078;27;20096;-73
2022/01/01 05:15:19;;;;;;;114.45;63.10;;;;;;;;;;5107824;27;20126;-73
2022/01/01 05:17:45;;;;;;;118.80;59.97;;;;;;;;;;5111340;27;20046;-73
2022/01/01 05:20:11;;;;;;;105.95;54.15;;;;;;;;;;5106379;27;20039;-80
2022/01/01 05:22:37;;;;;;;78.40;39.85;;;;;;;;;;5107991;27;20035;-80
2022/01/01 05:25:05;;;;;;;80.32;36.03;;;;;;;;;;5110383;27;20031;-79
2022/01/01 05:27:34;;;;;;;83.60;36.47;;;;;;;;;;5112130;27;20043;-79
2022/01/01 05:30:01;;;;;;;92.72;33.75;;;;;;;;;;5088104;28;20039;-79
2022/01/01 05:32:27;;;;;;;74.05;32.88;;;;;;;;;;5091464;27;20035;-79
2022/01/01 05:34:54;;;;;;;72.97;29.88;;;;;;;;;;5104076;27;20043;-80
2022/01/01 05:37:20;;;;;;;82.03;31.23;;;;;;;;;;5092528;27;20039;-79
2022/01/01 05:39:46;;;;;;;72.43;32.83;;;;;;;;;;5103683;27;20035;-79
2022/01/01 05:42:12;;;;;;;66.53;33.55;;;;;;;;;;5094090;27;20035;-80
2022/01/01 05:44:38;;;;;;;64.72;29.63;;;;;;;;;;5105986;27;20136;-79
2022/01/01 05:47:05;;;;;;;76.55;33.20;;;;;;;;;;5103329;27;20038;-79
2022/01/01 05:49:31;;;;;;;54.22;26.95;;;;;;;;;;5108625;27;20035;-79
2022/01/01 05:51:57;;;;;;;75.97;31.95;;;;;;;;;;5074713;27;20478;-79
2022/01/01 05:54:23;;;;;;;61.25;28.80;;;;;;;;;;5089392;27;20039;-79
2022/01/01 05:56:49;;;;;;;77.15;29.05;;;;;;;;;;5091211;27;20055;-79
2022/01/01 05:59:15;;;;;;;79.03;32.13;;;;;;;;;;5085526;27;20054;-80
2022/01/01 06:01:41;;;;;;;83.50;33.50;;;;;;;;;;5084254;27;20053;-80
2022/01/01 06:04:07;;;;;;;71.22;31.27;;;;;;;;;;5108050;27;20122;-80
2022/01/01 06:06:34;;;;;;;64.40;26.23;;;;;;;;;;5090477;27;20038;-80
2022/01/01 06:09:00;;;;;;;62.10;25.20;;;;;;;;;;5093543;27;20045;-80
2022/01/01 06:11:26;;;;;;;54.10;24.88;;;;;;;;;;5110280;27;20035;-80
2022/01/01 06:13:52;;;;;;;58.15;22.98;;;;;;;;;;5107264;27;20034;-79
2022/01/01 06:16:18;;;;;;;48.72;20.80;;;;;;;;;;5104204;27;20116;-80
2022/01/01 06:18:45;;;;;;;51.17;22.75;;;;;;;;;;5106685;27;20504;-80
2022/01/01 06:21:11;;;;;;;44.33;20.67;;;;;;;;;;5106996;27;20042;-79
2022/01/01 06:23:39;;;;;;;38.97;20.55;;;;;;;;;;5108208;27;20046;-80
2022/01/01 06:26:06;;;;;;;35.97;18.40;;;;;;;;;;5109343;27;20065;-79
2022/01/01 06:28:32;;;;;;;51.50;18.00;;;;;;;;;;5111585;27;20387;-79
2022/01/01 06:30:58;;;;;;;47.03;18.35;;;;;;;;;;5100670;27;20036;-80
2022/01/01 06:33:24;;;;;;;41.53;20.40;;;;;;;;;;5107389;27;20118;-80
2022/01/01 06:35:51;;;;;;;39.03;18.63;;;;;;;;;;5106734;27;20430;-80
2022/01/01 06:38:17;;;;;;;39.38;17.65;;;;;;;;;;5113093;27;20054;-80
2022/01/01 06:40:44;;;;;;;35.58;17.45;;;;;;;;;;5104483;27;20037;-80
2022/01/01 06:43:13;;;;;;;40.92;18.73;;;;;;;;;;5100091;27;20043;-80
2022/01/01 06:45:40;;;;;;;45.03;19.73;;;;;;;;;;5103501;27;20054;-80
2022/01/01 06:48:06;;;;;;;47.50;20.27;;;;;;;;;;5103999;27;20035;-80
2022/01/01 06:50:33;;;;;;;49.15;21.17;;;;;;;;;;5107334;27;20118;-80
2022/01/01 06:52:59;;;;;;;44.17;21.17;;;;;;;;;;5109639;27;20049;-80
2022/01/01 06:55:25;;;;;;;44.88;21.63;;;;;;;;;;5090336;27;20394;-80
2022/01/01 06:57:51;;;;;;;40.33;19.80;;;;;;;;;;5093584;27;20035;-79
2022/01/01 07:00:18;;;;;;;38.25;21.15;;;;;;;;;;5083548;27;20047;-80
2022/01/01 07:02:48;;;;;;;43.42;22.50;;;;;;;;;;5099101;27;20501;-79
2022/01/01 07:05:14;;;;;;;47.90;24.85;;;;;;;;;;5071601;27;20119;-79
2022/01/01 07:07:41;;;;;;;47.08;25.05;;;;;;;;;;5124573;27;20096;-80
2022/01/01 07:10:10;;;;;;;58.38;26.85;;;;;;;;;;5109446;27;20077;-80
2022/01/01 07:12:37;;;;;;;55.60;28.02;;;;;;;;;;5103108;27;20419;-79
2022/01/01 07:15:04;;;;;;;55.90;28.02;;;;;;;;;;5088294;27;20047;-79
2022/01/01 07:17:31;;;;;;;56.65;29.13;;;;;;;;;;5086181;27;20427;-79
2022/01/01 07:19:57;;;;;;;57.03;27.92;;;;;;;;;;5103012;27;20122;-73
2022/01/01 07:22:23;;;;;;;65.78;29.42;;;;;;;;;;5087726;27;20441;-73
2022/01/01 07:24:50;;;;;;;63.58;31.77;;;;;;;;;;5089789;27;20052;-73
2022/01/01 07:27:17;;;;;;;73.20;31.00;;;;;;;;;;5088100;27;20060;-73
2022/01/01 07:29:43;;;;;;;62.80;33.28;;;;;;;;;;5106602;27;20035;-73
2022/01/01 07:32:09;;;;;;;60.75;31.95;;;;;;;;;;5103435;27;20115;-73
2022/01/01 07:34:35;;;;;;;71.97;32.97;;;;;;;;;;5106119;27;20039;-73
2022/01/01 07:37:02;;;;;;;60.92;32.05;;;;;;;;;;5101271;27;20041;-73
2022/01/01 07:39:28;;;;;;;66.47;34.78;;;;;;;;;;5109092;27;20051;-73
2022/01/01 07:41:54;;;;;;;61.38;31.77;;;;;;;;;;5103300;27;20054;-73
2022/01/01 07:44:21;;;;;;;63.72;32.03;;;;;;;;;;5084383;28;20074;-73
2022/01/01 07:46:49;;;;;;;58.00;32.42;;;;;;;;;;5104989;27;20039;-73
2022/01/01 07:49:15;;;;;;;61.15;34.20;;;;;;;;;;5093107;27;20035;-73
2022/01/01 07:51:41;;;;;;;66.07;32.58;;;;;;;;;;5114385;27;20146;-73
2022/01/01 07:54:08;;;;;;;61.58;32.78;;;;;;;;;;5090934;27;20043;-73
2022/01/01 07:56:34;;;;;;;54.78;31.52;;;;;;;;;;5105567;27;20302;-73
2022/01/01 07:59:00;;;;;;;55.80;32.40;;;;;;;;;;5099940;27;20343;-73
2022/01/01 08:01:27;;;;;;;63.10;33.33;;;;;;;;;;5107091;27;20107;-73
2022/01/01 08:03:56;;;;;;;58.83;31.63;;;;;;;;;;5104810;27;20138;-73
2022/01/01 08:06:22;;;;;;;67.13;33.00;;;;;;;;;;5109174;28;20049;-73
2022/01/01 08:08:48;;;;;;;57.40;31.85;;;;;;;;;;5093243;27;20027;-73
2022/01/01 08:11:14;;;;;;;58.85;31.77;;;;;;;;;;5104920;28;20031;-73
2022/01/01 08:13:40;;;;;;;59.00;30.83;;;;;;;;;;5106144;27;20122;-73
2022/01/01 08:16:07;;;;;;;57.58;30.85;;;;;;;;;;5089146;28;20372;-73
2022/01/01 08:18:34;;;;;;;62.65;29.77;;;;;;;;;;5106036;28;20031;-73
2022/01/01 08:21:01;;;;;;;54.08;28.92;;;;;;;;;;5107138;28;20084;-73
2022/01/01 08:23:27;;;;;;;46.92;27.67;;;;;;;;;;5108418;27;20513;-73
2022/01/01 08:25:56;;;;;;;55.03;29.40;;;;;;;;;;5089595;28;20031;-73
2022/01/01 08:28:22;;;;;;;63.67;31.00;;;;;;;;;;5088162;27;20483;-74
2022/01/01 08:30:48;;;;;;;55.97;29.33;;;;;;;;;;5057506;28;20129;-74
2022/01/01 08:33:15;;;;;;;50.08;28.25;;;;;;;;;;5091634;28;20039;-74
2022/01/01 08:35:41;;;;;;;57.55;27.27;;;;;;;;;;5088620;27;20140;-74
2022/01/01 08:38:07;;;;;;;49.42;28.20;;;;;;;;;;5106342;27;20104;-74
2022/01/01 08:40:34;;;;;;;51.75;28.20;;;;;;;;;;5110526;27;20088;-80
2022/01/01 08:43:01;;;;;;;52.17;26.95;;;;;;;;;;5115472;27;20451;-80
2022/01/01 08:45:27;;;;;;;50.17;28.02;;;;;;;;;;5091270;27;20035;-80
2022/01/01 08:47:53;;;;;;;41.75;25.65;;;;;;;;;;5096851;27;20311;-80
2022/01/01 08:50:19;;;;;;;49.45;26.67;;;;;;;;;;5110337;27;20039;-80
2022/01/01 08:52:45;;;;;;;48.38;26.80;;;;;;;;;;5102246;27;20034;-73
2022/01/01 08:55:11;;;;;;;42.35;24.65;;;;;;;;;;5103675;27;20038;-73
2022/01/01 08:57:38;;;;;;;44.72;25.48;;;;;;;;;;5100139;27;20066;-74
2022/01/01 09:00:07;;;;;;;45.88;24.08;;;;;;;;;;5086856;27;20054;-74
2022/01/01 09:02:33;;;;;;;47.10;24.02;;;;;;;;;;5105096;27;20031;-74
2022/01/01 09:04:59;;;;;;;49.75;25.70;;;;;;;;;;5104756;27;20391;-74
2022/01/01 09:07:28;;;;;;;46.28;25.95;;;;;;;;;;5118800;27;20043;-72
2022/01/01 09:10:02;;;;;;;40.65;23.75;;;;;;;;;;5087008;27;20035;-78
2022/01/01 09:12:28;;;;;;;44.20;23.67;;;;;;;;;;5088632;27;20092;-77
2022/01/01 09:14:55;;;;;;;40.63;22.48;;;;;;;;;;5084181;27;20665;-78
2022/01/01 09:17:21;;;;;;;42.63;23.08;;;;;;;;;;5106686;27;20057;-79
2022/01/01 09:19:47;;;;;;;48.03;22.85;;;;;;;;;;5094101;27;20072;-79
2022/01/01 09:22:14;;;;;;;43.60;23.20;;;;;;;;;;5111091;27;20084;-79
2022/01/01 09:24:40;;;;;;;40.03;22.67;;;;;;;;;;5096105;27;20069;-79
2022/01/01 09:27:06;;;;;;;36.28;18.77;;;;;;;;;;5103702;27;20429;-79
2022/01/01 09:29:32;;;;;;;39.65;19.85;;;;;;;;;;5105606;27;20100;-79
2022/01/01 09:31:59;;;;;;;36.70;20.58;;;;;;;;;;5076030;27;20399;-79
2022/01/01 09:34:25;;;;;;;44.05;22.77;;;;;;;;;;5101648;27;20056;-79
2022/01/01 09:36:54;;;;;;;37.53;19.23;;;;;;;;;;5103061;27;20026;-73
2022/01/01 09:39:20;;;;;;;37.47;18.20;;;;;;;;;;5091071;27;20046;-73
2022/01/01 09:41:46;;;;;;;29.25;18.95;;;;;;;;;;5085894;28;20039;-73
2022/01/01 09:44:15;;;;;;;41.92;20.45;;;;;;;;;;5099287;27;20051;-73
2022/01/01 09:46:44;;;;;;;33.90;19.00;;;;;;;;;;5102285;27;20070;-73
2022/01/01 09:49:10;;;;;;;36.17;20.05;;;;;;;;;;5102802;27;20514;-73
2022/01/01 09:51:36;;;;;;;32.85;19.48;;;;;;;;;;5107008;27;20335;-73
2022/01/01 09:54:02;;;;;;;35.58;19.20;;;;;;;;;;5084182;27;20447;-74
2022/01/01 09:56:29;;;;;;;35.20;19.02;;;;;;;;;;5112234;27;20031;-80
2022/01/01 09:58:55;;;;;;;30.55;17.23;;;;;;;;;;5086785;27;20578;-79
2022/01/01 10:01:21;;;;;;;30.38;18.60;;;;;;;;;;5087853;27;20105;-79
2022/01/01 10:03:49;;;;;;;30.75;18.60;;;;;;;;;;5087614;27;20283;-79
2022/01/01 10:06:17;;;;;;;29.15;16.42;;;;;;;;;;5102676;27;20039;-79
2022/01/01 10:08:46;;;;;;;27.85;16.60;;;;;;;;;;5084577;27;20039;-80
2022/01/01 10:11:15;;;;;;;36.97;16.80;;;;;;;;;;5108134;27;20038;-80
2022/01/01 10:13:41;;;;;;;28.42;14.73;;;;;;;;;;5092215;27;20031;-80
2022/01/01 10:16:08;;;;;;;29.30;15.93;;;;;;;;;;5086130;27;20051;-79
2022/01/01 10:18:36;;;;;;;23.92;13.77;;;;;;;;;;5103389;27;20621;-73
2022/01/01 10:21:05;;;;;;;26.17;14.90;;;;;;;;;;5111259;27;20371;-73
2022/01/01 10:23:33;;;;;;;28.33;14.85;;;;;;;;;;5090818;27;20031;-73
2022/01/01 10:28:55;;;;;;;25.63;14.68;;;;;;;;;;5106677;27;20051;-73
2022/01/01 10:31:21;;;;;;;21.95;12.30;;;;;;;;;;5108256;27;20079;-80
2022/01/01 10:33:49;;;;;;;23.17;12.73;;;;;;;;;;5089337;27;20467;-79
2022/01/01 10:36:15;;;;;;;17.80;12.23;;;;;;;;;;5071161;27;20067;-79
2022/01/01 10:38:41;;;;;;;22.00;12.30;;;;;;;;;;5081835;27;20042;-79
2022/01/01 10:41:07;;;;;;;24.13;12.82;;;;;;;;;;5095372;27;20035;-79
2022/01/01 10:43:40;;;;;;;23.10;12.57;;;;;;;;;;5111493;27;20054;-79
2022/01/01 10:46:08;;;;;;;20.20;12.20;;;;;;;;;;5114218;27;20039;-79
2022/01/01 10:51:05;;;;;;;19.40;10.77;;;;;;;;;;5107449;27;20069;-79
2022/01/01 10:53:31;;;;;;;23.10;12.40;;;;;;;;;;5109968;27;20058;-80
2022/01/01 10:55:58;;;;;;;19.65;11.40;;;;;;;;;;5108106;27;20130;-80
2022/01/01 10:58:31;;;;;;;21.55;11.07;;;;;;;;;;5105044;27;20031;-79
2022/01/01 11:01:07;;;;;;;19.83;11.48;;;;;;;;;;5099885;27;20044;-73
2022/01/01 11:03:41;;;;;;;18.08;10.48;;;;;;;;;;5084003;27;20165;-79
2022/01/01 11:06:12;;;;;;;22.33;11.43;;;;;;;;;;5110864;27;20606;-73
2022/01/01 11:08:40;;;;;;;19.30;11.35;;;;;;;;;;5103010;27;20042;-73
2022/01/01 11:11:06;;;;;;;17.05;9.50;;;;;;;;;;5087299;27;20052;-73
2022/01/01 11:13:33;;;;;;;19.60;10.10;;;;;;;;;;5081241;27;20050;-73
2022/01/01 11:15:59;;;;;;;15.85;9.10;;;;;;;;;;5097891;27;20656;-73
2022/01/01 11:18:26;;;;;;;20.42;11.40;;;;;;;;;;5099824;27;20120;-73
2022/01/01 11:20:53;;;;;;;17.77;10.48;;;;;;;;;;5110529;27;20039;-73
2022/01/01 11:23:19;;;;;;;20.60;10.65;;;;;;;;;;5102312;28;20046;-73
2022/01/01 11:25:46;;;;;;;19.52;10.13;;;;;;;;;;5115633;27;20351;-73
2022/01/01 11:28:13;;;;;;;16.08;10.32;;;;;;;;;;5105737;27;20046;-73
2022/01/01 11:31:00;;;;;;;24.42;11.55;;;;;;;;;;5083787;27;20464;-73
2022/01/01 11:33:32;;;;;;;19.25;10.35;;;;;;;;;;5112447;27;20540;-79
2022/01/01 11:35:59;;;;;;;17.73;12.07;;;;;;;;;;5111534;27;20030;-79
2022/01/01 11:38:26;;;;;;;24.60;12.18;;;;;;;;;;5111112;27;20034;-79
2022/01/01 11:41:00;;;;;;;21.95;11.43;;;;;;;;;;5107206;27;20062;-79
2022/01/01 11:43:32;;;;;;;33.80;15.25;;;;;;;;;;5084816;28;20039;-79
2022/01/01 11:45:58;;;;;;;24.38;13.15;;;;;;;;;;5110540;27;20047;-79
2022/01/01 11:48:32;;;;;;;21.35;10.45;;;;;;;;;;5091636;27;20044;-79
2022/01/01 11:51:18;;;;;;;19.42;11.85;;;;;;;;;;5088418;28;20122;-80
2022/01/01 11:54:02;;;;;;;20.38;10.90;;;;;;;;;;5087766;27;20035;-80
2022/01/01 11:56:51;;;;;;;18.48;12.23;;;;;;;;;;5103514;27;20040;-80
2022/01/01 11:59:21;;;;;;;19.48;10.85;;;;;;;;;;5099392;27;20098;-79
2022/01/01 12:01:47;;;;;;;22.48;10.80;;;;;;;;;;5088482;27;20122;-79
2022/01/01 12:04:23;;;;;;;18.73;10.70;;;;;;;;;;5082679;27;20565;-79
2022/01/01 12:06:53;;;;;;;14.25;10.02;;;;;;;;;;5093807;28;20074;-80
2022/01/01 12:09:19;;;;;;;22.92;10.32;;;;;;;;;;5101145;28;20479;-80
2022/01/01 12:11:50;;;;;;;16.65;9.40;;;;;;;;;;5102432;27;20031;-73
2022/01/01 12:14:28;;;;;;;31.40;9.48;;;;;;;;;;5104120;27;20032;-73
2022/01/01 12:16:55;;;;;;;19.52;9.02;;;;;;;;;;5097179;27;20233;-73
2022/01/01 12:19:25;;;;;;;12.82;8.05;;;;;;;;;;5103446;27;20043;-73
2022/01/01 12:22:05;;;;;;;13.57;8.05;;;;;;;;;;5108762;27;20042;-73
2022/01/01 12:24:39;;;;;;;16.88;9.38;;;;;;;;;;5096142;27;20042;-73
2022/01/01 12:27:13;;;;;;;14.50;8.25;;;;;;;;;;5101709;27;20543;-73
2022/01/01 12:29:39;;;;;;;18.92;7.97;;;;;;;;;;5098279;27;20053;-73
2022/01/01 12:32:08;;;;;;;15.57;8.25;;;;;;;;;;5108668;27;20331;-73
2022/01/01 12:34:36;;;;;;;12.77;7.90;;;;;;;;;;5106541;27;20035;-73
2022/01/01 12:37:04;;;;;;;21.05;8.98;;;;;;;;;;5101643;27;20088;-73
2022/01/01 12:39:30;;;;;;;13.70;8.45;;;;;;;;;;5110170;27;20036;-73
2022/01/01 12:41:57;;;;;;;15.55;8.45;;;;;;;;;;5109018;27;20064;-73
2022/01/01 12:44:26;;;;;;;17.75;8.85;;;;;;;;;;5092128;27;20043;-73
2022/01/01 12:47:01;;;;;;;21.38;10.10;;;;;;;;;;5110723;27;20099;-80
2022/01/01 12:49:28;;;;;;;14.55;8.13;;;;;;;;;;5110670;27;20031;-80
2022/01/01 12:51:56;;;;;;;14.23;8.13;;;;;;;;;;5098817;27;20441;-79
2022/01/01 12:54:23;;;;;;;16.90;8.80;;;;;;;;;;5099948;27;20055;-79
2022/01/01 12:56:49;;;;;;;15.07;7.32;;;;;;;;;;5102916;27;20300;-79
2022/01/01 12:59:17;;;;;;;14.38;7.95;;;;;;;;;;5091657;27;20043;-79
2022/01/01 13:01:45;;;;;;;16.42;9.32;;;;;;;;;;5089541;27;20051;-79
2022/01/01 13:04:12;;;;;;;20.38;8.50;;;;;;;;;;5086645;27;20483;-78
2022/01/01 13:07:05;;;;;;;16.15;9.73;;;;;;;;;;5096873;27;20043;-79
2022/01/01 13:09:31;;;;;;;;;;;;;;;;;;5102316;27;20047;-79
2022/01/01 13:12:03;;;;;;;12.50;7.78;;;;;;;;;;5105688;27;19930;-79
2022/01/01 13:14:30;;;;;;;17.30;9.93;;;;;;;;;;5087830;27;20032;-79
2022/01/01 13:16:58;;;;;;;16.60;8.40;;;;;;;;;;5111184;27;20551;-79
2022/01/01 13:19:24;;;;;;;13.50;8.15;;;;;;;;;;5113986;27;20052;-73
2022/01/01 13:21:53;;;;;;;16.35;9.27;;;;;;;;;;5106709;27;20043;-73
2022/01/01 13:24:19;;;;;;;14.80;8.63;;;;;;;;;;5102701;27;20382;-73
2022/01/01 13:26:46;;;;;;;21.08;8.23;;;;;;;;;;5104282;27;20283;-73
2022/01/01 13:29:12;;;;;;;15.80;9.48;;;;;;;;;;5093348;27;20042;-73
2022/01/01 13:31:38;;;;;;;13.50;9.82;;;;;;;;;;5087422;27;20028;-79
2022/01/01 13:34:05;;;;;;;13.82;9.77;;;;;;;;;;5104181;27;20042;-79
2022/01/01 13:36:36;;;;;;;15.90;10.02;;;;;;;;;;5107691;27;20496;-79
2022/01/01 13:39:04;;;;;;;21.17;10.60;;;;;;;;;;5099659;27;20039;-79
2022/01/01 13:41:41;;;;;;;22.15;10.15;;;;;;;;;;5106845;27;20102;-73
2022/01/01 13:44:17;;;;;;;13.77;8.32;;;;;;;;;;5096024;27;20046;-73
2022/01/01 13:46:43;;;;;;;15.77;8.73;;;;;;;;;;5100033;27;20379;-73
2022/01/01 13:49:12;;;;;;;17.67;9.23;;;;;;;;;;5085860;27;20063;-80
2022/01/01 13:51:38;;;;;;;17.23;9.50;;;;;;;;;;5083415;27;20401;-80
2022/01/01 13:54:05;;;;;;;15.05;9.07;;;;;;;;;;5090217;28;20436;-79
2022/01/01 13:56:31;;;;;;;12.18;7.72;;;;;;;;;;5093296;27;20039;-73
2022/01/01 13:58:58;;;;;;;12.93;8.63;;;;;;;;;;5086290;27;20152;-73
2022/01/01 14:01:26;;;;;;;17.25;9.30;;;;;;;;;;5102948;27;20104;-78
2022/01/01 14:03:53;;;;;;;12.60;8.73;;;;;;;;;;5086057;27;20037;-78
2022/01/01 14:06:27;;;;;;;16.52;10.25;;;;;;;;;;5111149;27;20679;-78
2022/01/01 14:09:00;;;;;;;13.23;9.38;;;;;;;;;;5109760;27;20134;-79
2022/01/01 14:11:27;;;;;;;16.08;8.98;;;;;;;;;;5101042;27;20151;-73
2022/01/01 14:14:03;;;;;;;18.13;9.73;;;;;;;;;;5101004;27;20051;-73
2022/01/01 14:16:30;;;;;;;14.75;9.52;;;;;;;;;;5094466;27;20054;-78
2022/01/01 14:18:57;;;;;;;16.85;8.80;;;;;;;;;;5121768;27;20040;-78
2022/01/01 14:21:27;;;;;;;19.17;10.32;;;;;;;;;;5102656;27;20505;-79
2022/01/01 14:23:57;;;;;;;19.30;11.32;;;;;;;;;;5103939;27;20042;-79
2022/01/01 14:26:26;;;;;;;15.88;9.98;;;;;;;;;;5099428;27;20515;-73
2022/01/01 14:28:54;;;;;;;14.02;8.30;;;;;;;;;;5092104;27;20047;-73
2022/01/01 14:31:21;;;;;;;18.65;9.75;;;;;;;;;;5088877;27;20104;-72